sensor_id;sensor_type;location;lat;lon;timestamp;P1;durP1;ratioP1;P2;durP2;ratioP2
22064;SDS011;11197;53.110;8.468;2023-09-07T00:00:50;5.32;;;2.85;;
22064;SDS011;11197;53.110;8.468;2023-09-07T00:03:16;5.75;;;3.10;;
22064;SDS011;11197;53.110;8.468;2023-09-07T00:05:41;5.13;;;3.05;;
22064;SDS011;11197;53.110;8.468;2023-09-07T00:08:07;6.22;;;3.00;;
22064;SDS011;11197;53.110;8.468;2023-09-07T00:10:33;4.25;;;3.13;;
22064;SDS011;11197;53.110;8.468;2023-09-07T00:13:02;4.40;;;2.92;;
22064;SDS011;11197;53.110;8.468;2023-09-07T00:15:29;3.60;;;2.90;;
22064;SDS011;11197;53.110;8.468;2023-09-07T00:17:55;7.72;;;2.88;;
22064;SDS011;11197;53.110;8.468;2023-09-07T00:20:22;3.83;;;2.95;;
22064;SDS011;11197;53.110;8.468;2023-09-07T00:22:48;3.65;;;3.03;;
22064;SDS011;11197;53.110;8.468;2023-09-07T00:25:14;3.45;;;3.00;;
22064;SDS011;11197;53.110;8.468;2023-09-07T00:27:40;3.58;;;2.88;;
22064;SDS011;11197;53.110;8.468;2023-09-07T00:30:06;3.92;;;3.15;;
22064;SDS011;11197;53.110;8.468;2023-09-07T00:32:35;5.30;;;3.00;;
22064;SDS011;11197;53.110;8.468;2023-09-07T00:35:02;3.85;;;2.90;;
22064;SDS011;11197;53.110;8.468;2023-09-07T00:37:28;4.75;;;3.10;;
22064;SDS011;11197;53.110;8.468;2023-09-07T00:39:54;3.63;;;2.90;;
22064;SDS011;11197;53.110;8.468;2023-09-07T00:42:19;5.57;;;3.20;;
22064;SDS011;11197;53.110;8.468;2023-09-07T00:44:45;5.55;;;3.00;;
22064;SDS011;11197;53.110;8.468;2023-09-07T00:47:11;3.95;;;3.03;;
22064;SDS011;11197;53.110;8.468;2023-09-07T00:49:38;3.92;;;2.80;;
22064;SDS011;11197;53.110;8.468;2023-09-07T00:52:05;5.68;;;3.33;;
22064;SDS011;11197;53.110;8.468;2023-09-07T00:54:31;4.55;;;3.35;;
22064;SDS011;11197;53.110;8.468;2023-09-07T00:56:57;5.65;;;3.30;;
22064;SDS011;11197;53.110;8.468;2023-09-07T00:59:23;4.93;;;3.00;;
22064;SDS011;11197;53.110;8.468;2023-09-07T01:01:50;4.18;;;3.30;;
22064;SDS011;11197;53.110;8.468;2023-09-07T01:04:18;6.30;;;3.28;;
22064;SDS011;11197;53.110;8.468;2023-09-07T01:06:45;4.65;;;3.28;;
22064;SDS011;11197;53.110;8.468;2023-09-07T01:09:19;4.55;;;3.10;;
22064;SDS011;11197;53.110;8.468;2023-09-07T01:11:48;5.22;;;3.10;;
22064;SDS011;11197;53.110;8.468;2023-09-07T01:14:15;5.15;;;3.47;;
22064;SDS011;11197;53.110;8.468;2023-09-07T01:16:41;4.78;;;3.00;;
22064;SDS011;11197;53.110;8.468;2023-09-07T01:19:07;4.15;;;3.15;;
22064;SDS011;11197;53.110;8.468;2023-09-07T01:21:34;5.18;;;3.35;;
22064;SDS011;11197;53.110;8.468;2023-09-07T01:24:01;4.43;;;3.30;;
22064;SDS011;11197;53.110;8.468;2023-09-07T01:26:33;4.45;;;3.47;;
22064;SDS011;11197;53.110;8.468;2023-09-07T01:29:07;4.20;;;3.63;;
22064;SDS011;11197;53.110;8.468;2023-09-07T01:31:37;4.72;;;3.25;;
22064;SDS011;11197;53.110;8.468;2023-09-07T01:34:04;4.68;;;3.13;;
22064;SDS011;11197;53.110;8.468;2023-09-07T01:36:34;6.13;;;3.42;;
22064;SDS011;11197;53.110;8.468;2023-09-07T01:39:01;4.50;;;3.17;;
22064;SDS011;11197;53.110;8.468;2023-09-07T01:41:28;4.03;;;3.17;;
22064;SDS011;11197;53.110;8.468;2023-09-07T01:43:55;4.30;;;3.42;;
22064;SDS011;11197;53.110;8.468;2023-09-07T01:46:21;4.43;;;3.50;;
22064;SDS011;11197;53.110;8.468;2023-09-07T01:48:47;5.18;;;3.47;;
22064;SDS011;11197;53.110;8.468;2023-09-07T01:51:12;5.88;;;3.72;;
22064;SDS011;11197;53.110;8.468;2023-09-07T01:53:38;4.53;;;3.17;;
22064;SDS011;11197;53.110;8.468;2023-09-07T01:56:04;4.35;;;3.60;;
22064;SDS011;11197;53.110;8.468;2023-09-07T01:58:29;5.43;;;3.70;;
22064;SDS011;11197;53.110;8.468;2023-09-07T02:00:58;5.13;;;3.58;;
22064;SDS011;11197;53.110;8.468;2023-09-07T02:03:25;5.93;;;3.30;;
22064;SDS011;11197;53.110;8.468;2023-09-07T02:05:52;4.13;;;3.40;;
22064;SDS011;11197;53.110;8.468;2023-09-07T02:08:18;4.97;;;3.45;;
22064;SDS011;11197;53.110;8.468;2023-09-07T02:10:44;5.28;;;3.42;;
22064;SDS011;11197;53.110;8.468;2023-09-07T02:13:10;4.93;;;3.80;;
22064;SDS011;11197;53.110;8.468;2023-09-07T02:15:37;5.28;;;3.72;;
22064;SDS011;11197;53.110;8.468;2023-09-07T02:18:03;4.47;;;3.67;;
22064;SDS011;11197;53.110;8.468;2023-09-07T02:20:31;4.15;;;3.38;;
22064;SDS011;11197;53.110;8.468;2023-09-07T02:22:57;4.45;;;3.63;;
22064;SDS011;11197;53.110;8.468;2023-09-07T02:25:23;6.20;;;3.85;;
22064;SDS011;11197;53.110;8.468;2023-09-07T02:27:49;4.68;;;3.50;;
22064;SDS011;11197;53.110;8.468;2023-09-07T02:30:15;5.05;;;3.80;;
22064;SDS011;11197;53.110;8.468;2023-09-07T02:32:42;4.53;;;3.50;;
22064;SDS011;11197;53.110;8.468;2023-09-07T02:35:08;4.32;;;3.70;;
22064;SDS011;11197;53.110;8.468;2023-09-07T02:37:35;4.88;;;4.05;;
22064;SDS011;11197;53.110;8.468;2023-09-07T02:40:01;4.90;;;4.10;;
22064;SDS011;11197;53.110;8.468;2023-09-07T02:42:27;4.55;;;3.90;;
22064;SDS011;11197;53.110;8.468;2023-09-07T02:44:52;5.45;;;4.15;;
22064;SDS011;11197;53.110;8.468;2023-09-07T02:47:18;5.00;;;4.00;;
22064;SDS011;11197;53.110;8.468;2023-09-07T02:49:44;4.72;;;4.13;;
22064;SDS011;11197;53.110;8.468;2023-09-07T02:52:10;5.45;;;4.30;;
22064;SDS011;11197;53.110;8.468;2023-09-07T02:54:35;5.43;;;4.32;;
22064;SDS011;11197;53.110;8.468;2023-09-07T02:57:01;5.47;;;4.03;;
22064;SDS011;11197;53.110;8.468;2023-09-07T02:59:28;5.93;;;4.40;;
22064;SDS011;11197;53.110;8.468;2023-09-07T03:01:54;10.25;;;4.65;;
22064;SDS011;11197;53.110;8.468;2023-09-07T03:04:20;6.38;;;4.15;;
22064;SDS011;11197;53.110;8.468;2023-09-07T03:06:46;5.63;;;4.50;;
22064;SDS011;11197;53.110;8.468;2023-09-07T03:09:12;5.65;;;4.35;;
22064;SDS011;11197;53.110;8.468;2023-09-07T03:11:37;6.70;;;4.75;;
22064;SDS011;11197;53.110;8.468;2023-09-07T03:14:03;6.57;;;5.10;;
22064;SDS011;11197;53.110;8.468;2023-09-07T03:16:29;6.53;;;4.75;;
22064;SDS011;11197;53.110;8.468;2023-09-07T03:18:55;5.57;;;4.80;;
22064;SDS011;11197;53.110;8.468;2023-09-07T03:21:21;7.25;;;5.20;;
22064;SDS011;11197;53.110;8.468;2023-09-07T03:23:51;6.43;;;5.05;;
22064;SDS011;11197;53.110;8.468;2023-09-07T03:26:18;5.50;;;4.82;;
22064;SDS011;11197;53.110;8.468;2023-09-07T03:28:44;6.68;;;5.22;;
22064;SDS011;11197;53.110;8.468;2023-09-07T03:31:11;6.55;;;4.93;;
22064;SDS011;11197;53.110;8.468;2023-09-07T03:33:36;6.22;;;5.22;;
22064;SDS011;11197;53.110;8.468;2023-09-07T03:36:02;6.00;;;5.22;;
22064;SDS011;11197;53.110;8.468;2023-09-07T03:38:28;7.43;;;5.00;;
22064;SDS011;11197;53.110;8.468;2023-09-07T03:40:55;7.35;;;5.65;;
22064;SDS011;11197;53.110;8.468;2023-09-07T03:43:20;6.75;;;5.25;;
22064;SDS011;11197;53.110;8.468;2023-09-07T03:45:46;7.60;;;5.50;;
22064;SDS011;11197;53.110;8.468;2023-09-07T03:48:12;6.00;;;5.32;;
22064;SDS011;11197;53.110;8.468;2023-09-07T03:50:38;6.43;;;5.50;;
22064;SDS011;11197;53.110;8.468;2023-09-07T03:53:03;7.93;;;5.00;;
22064;SDS011;11197;53.110;8.468;2023-09-07T03:55:29;7.53;;;5.43;;
22064;SDS011;11197;53.110;8.468;2023-09-07T03:57:55;7.95;;;5.80;;
22064;SDS011;11197;53.110;8.468;2023-09-07T04:00:21;8.27;;;5.80;;
22064;SDS011;11197;53.110;8.468;2023-09-07T04:02:49;6.60;;;5.20;;
22064;SDS011;11197;53.110;8.468;2023-09-07T04:05:14;6.47;;;5.25;;
22064;SDS011;11197;53.110;8.468;2023-09-07T04:07:40;7.95;;;5.03;;
22064;SDS011;11197;53.110;8.468;2023-09-07T04:10:06;7.20;;;5.60;;
22064;SDS011;11197;53.110;8.468;2023-09-07T04:12:31;7.65;;;5.35;;
22064;SDS011;11197;53.110;8.468;2023-09-07T04:14:59;6.68;;;4.90;;
22064;SDS011;11197;53.110;8.468;2023-09-07T04:17:28;6.20;;;5.37;;
22064;SDS011;11197;53.110;8.468;2023-09-07T04:19:54;6.57;;;5.45;;
22064;SDS011;11197;53.110;8.468;2023-09-07T04:22:19;6.80;;;5.78;;
22064;SDS011;11197;53.110;8.468;2023-09-07T04:24:47;6.55;;;5.72;;
22064;SDS011;11197;53.110;8.468;2023-09-07T04:27:14;7.97;;;5.80;;
22064;SDS011;11197;53.110;8.468;2023-09-07T04:29:40;9.25;;;6.55;;
22064;SDS011;11197;53.110;8.468;2023-09-07T04:32:05;7.43;;;5.90;;
22064;SDS011;11197;53.110;8.468;2023-09-07T04:34:31;6.82;;;5.90;;
22064;SDS011;11197;53.110;8.468;2023-09-07T04:36:57;9.10;;;6.07;;
22064;SDS011;11197;53.110;8.468;2023-09-07T04:39:22;7.50;;;6.50;;
22064;SDS011;11197;53.110;8.468;2023-09-07T04:41:48;8.23;;;6.32;;
22064;SDS011;11197;53.110;8.468;2023-09-07T04:44:15;7.97;;;6.43;;
22064;SDS011;11197;53.110;8.468;2023-09-07T04:46:40;8.45;;;7.00;;
22064;SDS011;11197;53.110;8.468;2023-09-07T04:49:07;8.80;;;7.22;;
22064;SDS011;11197;53.110;8.468;2023-09-07T04:51:33;9.02;;;7.03;;
22064;SDS011;11197;53.110;8.468;2023-09-07T04:53:58;7.05;;;6.22;;
22064;SDS011;11197;53.110;8.468;2023-09-07T04:56:24;11.20;;;7.50;;
22064;SDS011;11197;53.110;8.468;2023-09-07T04:58:50;8.43;;;6.95;;
22064;SDS011;11197;53.110;8.468;2023-09-07T05:01:16;10.68;;;7.55;;
22064;SDS011;11197;53.110;8.468;2023-09-07T05:03:42;10.27;;;7.38;;
22064;SDS011;11197;53.110;8.468;2023-09-07T05:06:08;8.88;;;6.82;;
22064;SDS011;11197;53.110;8.468;2023-09-07T05:08:34;8.18;;;7.38;;
22064;SDS011;11197;53.110;8.468;2023-09-07T05:11:01;8.45;;;7.20;;
22064;SDS011;11197;53.110;8.468;2023-09-07T05:13:28;11.32;;;7.15;;
22064;SDS011;11197;53.110;8.468;2023-09-07T05:15:57;8.93;;;7.68;;
22064;SDS011;11197;53.110;8.468;2023-09-07T05:18:24;10.25;;;7.65;;
22064;SDS011;11197;53.110;8.468;2023-09-07T05:20:50;9.45;;;7.20;;
22064;SDS011;11197;53.110;8.468;2023-09-07T05:23:17;11.18;;;7.22;;
22064;SDS011;11197;53.110;8.468;2023-09-07T05:25:45;8.93;;;7.90;;
22064;SDS011;11197;53.110;8.468;2023-09-07T05:28:12;10.30;;;8.00;;
22064;SDS011;11197;53.110;8.468;2023-09-07T05:30:39;9.18;;;7.15;;
22064;SDS011;11197;53.110;8.468;2023-09-07T05:33:05;8.60;;;7.70;;
22064;SDS011;11197;53.110;8.468;2023-09-07T05:35:31;10.27;;;7.20;;
22064;SDS011;11197;53.110;8.468;2023-09-07T05:37:58;11.30;;;8.80;;
22064;SDS011;11197;53.110;8.468;2023-09-07T05:40:24;9.23;;;7.63;;
22064;SDS011;11197;53.110;8.468;2023-09-07T05:42:51;9.75;;;7.13;;
22064;SDS011;11197;53.110;8.468;2023-09-07T05:45:16;11.30;;;7.95;;
22064;SDS011;11197;53.110;8.468;2023-09-07T05:47:42;9.88;;;7.60;;
22064;SDS011;11197;53.110;8.468;2023-09-07T05:50:08;8.95;;;8.02;;
22064;SDS011;11197;53.110;8.468;2023-09-07T05:52:34;11.63;;;7.90;;
22064;SDS011;11197;53.110;8.468;2023-09-07T05:54:59;10.13;;;7.60;;
22064;SDS011;11197;53.110;8.468;2023-09-07T05:57:25;9.85;;;8.00;;
22064;SDS011;11197;53.110;8.468;2023-09-07T05:59:50;9.10;;;7.40;;
22064;SDS011;11197;53.110;8.468;2023-09-07T06:02:16;11.00;;;7.95;;
22064;SDS011;11197;53.110;8.468;2023-09-07T06:04:42;13.70;;;7.45;;
22064;SDS011;11197;53.110;8.468;2023-09-07T06:07:08;14.93;;;8.88;;
22064;SDS011;11197;53.110;8.468;2023-09-07T06:09:34;9.25;;;8.05;;
22064;SDS011;11197;53.110;8.468;2023-09-07T06:12:02;9.75;;;7.90;;
22064;SDS011;11197;53.110;8.468;2023-09-07T06:14:28;9.68;;;8.57;;
22064;SDS011;11197;53.110;8.468;2023-09-07T06:16:54;10.30;;;7.80;;
22064;SDS011;11197;53.110;8.468;2023-09-07T06:19:20;11.93;;;8.75;;
22064;SDS011;11197;53.110;8.468;2023-09-07T06:21:45;11.00;;;8.93;;
22064;SDS011;11197;53.110;8.468;2023-09-07T06:24:11;11.30;;;9.43;;
22064;SDS011;11197;53.110;8.468;2023-09-07T06:26:37;12.35;;;8.63;;
22064;SDS011;11197;53.110;8.468;2023-09-07T06:29:03;10.48;;;8.13;;
22064;SDS011;11197;53.110;8.468;2023-09-07T06:31:29;13.45;;;8.68;;
22064;SDS011;11197;53.110;8.468;2023-09-07T06:33:55;11.90;;;9.00;;
22064;SDS011;11197;53.110;8.468;2023-09-07T06:36:20;10.55;;;8.07;;
22064;SDS011;11197;53.110;8.468;2023-09-07T06:38:46;10.98;;;8.07;;
22064;SDS011;11197;53.110;8.468;2023-09-07T06:41:12;11.20;;;9.02;;
22064;SDS011;11197;53.110;8.468;2023-09-07T06:43:38;12.07;;;8.80;;
22064;SDS011;11197;53.110;8.468;2023-09-07T06:46:06;14.57;;;9.23;;
22064;SDS011;11197;53.110;8.468;2023-09-07T06:48:33;13.45;;;9.65;;
22064;SDS011;11197;53.110;8.468;2023-09-07T06:51:02;13.57;;;9.88;;
22064;SDS011;11197;53.110;8.468;2023-09-07T06:55:59;13.50;;;9.20;;
22064;SDS011;11197;53.110;8.468;2023-09-07T06:58:25;14.77;;;9.50;;
22064;SDS011;11197;53.110;8.468;2023-09-07T07:00:51;12.68;;;9.65;;
22064;SDS011;11197;53.110;8.468;2023-09-07T07:03:17;13.77;;;9.32;;
22064;SDS011;11197;53.110;8.468;2023-09-07T07:05:43;12.88;;;9.68;;
22064;SDS011;11197;53.110;8.468;2023-09-07T07:08:09;13.85;;;9.63;;
22064;SDS011;11197;53.110;8.468;2023-09-07T07:10:35;13.95;;;9.15;;
22064;SDS011;11197;53.110;8.468;2023-09-07T07:13:01;12.75;;;9.52;;
22064;SDS011;11197;53.110;8.468;2023-09-07T07:15:26;14.02;;;9.23;;
22064;SDS011;11197;53.110;8.468;2023-09-07T07:17:52;16.50;;;9.55;;
22064;SDS011;11197;53.110;8.468;2023-09-07T07:20:18;14.05;;;8.82;;
22064;SDS011;11197;53.110;8.468;2023-09-07T07:22:44;11.18;;;8.45;;
22064;SDS011;11197;53.110;8.468;2023-09-07T07:25:12;13.55;;;8.95;;
22064;SDS011;11197;53.110;8.468;2023-09-07T07:27:38;11.70;;;8.85;;
22064;SDS011;11197;53.110;8.468;2023-09-07T07:30:05;14.23;;;8.98;;
22064;SDS011;11197;53.110;8.468;2023-09-07T07:32:31;17.67;;;9.30;;
22064;SDS011;11197;53.110;8.468;2023-09-07T07:34:57;13.30;;;8.40;;
22064;SDS011;11197;53.110;8.468;2023-09-07T07:37:23;15.43;;;8.70;;
22064;SDS011;11197;53.110;8.468;2023-09-07T07:39:49;15.20;;;8.93;;
22064;SDS011;11197;53.110;8.468;2023-09-07T07:42:16;17.38;;;8.38;;
22064;SDS011;11197;53.110;8.468;2023-09-07T07:44:43;18.98;;;8.75;;
22064;SDS011;11197;53.110;8.468;2023-09-07T07:47:10;15.80;;;8.85;;
22064;SDS011;11197;53.110;8.468;2023-09-07T07:49:36;13.32;;;8.82;;
22064;SDS011;11197;53.110;8.468;2023-09-07T07:52:02;15.63;;;8.13;;
22064;SDS011;11197;53.110;8.468;2023-09-07T07:54:28;15.38;;;8.60;;
22064;SDS011;11197;53.110;8.468;2023-09-07T07:56:56;13.13;;;8.00;;
22064;SDS011;11197;53.110;8.468;2023-09-07T07:59:22;12.68;;;8.00;;
22064;SDS011;11197;53.110;8.468;2023-09-07T08:01:47;9.90;;;7.75;;
22064;SDS011;11197;53.110;8.468;2023-09-07T08:04:13;13.13;;;7.97;;
22064;SDS011;11197;53.110;8.468;2023-09-07T08:06:39;14.10;;;7.85;;
22064;SDS011;11197;53.110;8.468;2023-09-07T08:09:05;8.82;;;6.80;;
22064;SDS011;11197;53.110;8.468;2023-09-07T08:11:31;11.77;;;7.25;;
22064;SDS011;11197;53.110;8.468;2023-09-07T08:13:56;10.60;;;6.95;;
22064;SDS011;11197;53.110;8.468;2023-09-07T08:16:22;10.50;;;7.15;;
22064;SDS011;11197;53.110;8.468;2023-09-07T08:18:48;11.30;;;7.00;;
22064;SDS011;11197;53.110;8.468;2023-09-07T08:21:15;12.07;;;7.25;;
22064;SDS011;11197;53.110;8.468;2023-09-07T08:23:42;12.13;;;7.00;;
22064;SDS011;11197;53.110;8.468;2023-09-07T08:26:08;11.05;;;6.85;;
22064;SDS011;11197;53.110;8.468;2023-09-07T08:28:40;10.57;;;7.13;;
22064;SDS011;11197;53.110;8.468;2023-09-07T08:31:05;11.68;;;7.18;;
22064;SDS011;11197;53.110;8.468;2023-09-07T08:33:31;11.55;;;6.78;;
22064;SDS011;11197;53.110;8.468;2023-09-07T08:36:00;9.40;;;6.50;;
22064;SDS011;11197;53.110;8.468;2023-09-07T08:38:26;11.23;;;6.53;;
22064;SDS011;11197;53.110;8.468;2023-09-07T08:40:53;11.07;;;6.90;;
22064;SDS011;11197;53.110;8.468;2023-09-07T08:43:20;10.27;;;6.18;;
22064;SDS011;11197;53.110;8.468;2023-09-07T08:45:49;10.57;;;6.70;;
22064;SDS011;11197;53.110;8.468;2023-09-07T08:48:18;12.25;;;6.57;;
22064;SDS011;11197;53.110;8.468;2023-09-07T08:50:45;11.73;;;6.30;;
22064;SDS011;11197;53.110;8.468;2023-09-07T08:53:17;12.40;;;5.82;;
22064;SDS011;11197;53.110;8.468;2023-09-07T08:55:45;10.63;;;5.97;;
22064;SDS011;11197;53.110;8.468;2023-09-07T08:58:11;11.18;;;6.15;;
22064;SDS011;11197;53.110;8.468;2023-09-07T09:00:37;11.02;;;6.03;;
22064;SDS011;11197;53.110;8.468;2023-09-07T09:03:03;11.48;;;6.47;;
22064;SDS011;11197;53.110;8.468;2023-09-07T09:05:30;8.55;;;6.13;;
22064;SDS011;11197;53.110;8.468;2023-09-07T09:08:03;10.10;;;5.97;;
22064;SDS011;11197;53.110;8.468;2023-09-07T09:10:29;10.80;;;6.15;;
22064;SDS011;11197;53.110;8.468;2023-09-07T09:12:55;9.48;;;5.95;;
22064;SDS011;11197;53.110;8.468;2023-09-07T09:15:21;7.60;;;5.50;;
22064;SDS011;11197;53.110;8.468;2023-09-07T09:17:47;10.90;;;5.93;;
22064;SDS011;11197;53.110;8.468;2023-09-07T09:20:25;12.38;;;6.20;;
22064;SDS011;11197;53.110;8.468;2023-09-07T09:22:54;10.18;;;5.35;;
22064;SDS011;11197;53.110;8.468;2023-09-07T09:25:21;9.18;;;5.65;;
22064;SDS011;11197;53.110;8.468;2023-09-07T09:27:47;12.65;;;5.78;;
22064;SDS011;11197;53.110;8.468;2023-09-07T09:30:13;11.13;;;5.90;;
22064;SDS011;11197;53.110;8.468;2023-09-07T09:32:41;10.93;;;5.53;;
22064;SDS011;11197;53.110;8.468;2023-09-07T09:35:08;7.60;;;5.28;;
22064;SDS011;11197;53.110;8.468;2023-09-07T09:37:42;16.77;;;5.47;;
22064;SDS011;11197;53.110;8.468;2023-09-07T09:40:09;8.30;;;5.22;;
22064;SDS011;11197;53.110;8.468;2023-09-07T09:42:35;7.35;;;5.60;;
22064;SDS011;11197;53.110;8.468;2023-09-07T09:45:02;7.97;;;5.50;;
22064;SDS011;11197;53.110;8.468;2023-09-07T09:47:30;12.15;;;5.65;;
22064;SDS011;11197;53.110;8.468;2023-09-07T09:49:56;8.98;;;6.00;;
22064;SDS011;11197;53.110;8.468;2023-09-07T09:52:23;8.77;;;5.13;;
22064;SDS011;11197;53.110;8.468;2023-09-07T09:54:51;9.48;;;5.85;;
22064;SDS011;11197;53.110;8.468;2023-09-07T09:57:18;7.80;;;5.63;;
22064;SDS011;11197;53.110;8.468;2023-09-07T09:59:44;6.07;;;5.32;;
22064;SDS011;11197;53.110;8.468;2023-09-07T10:02:10;6.35;;;5.35;;
22064;SDS011;11197;53.110;8.468;2023-09-07T10:04:37;7.03;;;5.55;;
22064;SDS011;11197;53.110;8.468;2023-09-07T10:07:03;6.68;;;5.47;;
22064;SDS011;11197;53.110;8.468;2023-09-07T10:09:33;7.47;;;5.38;;
22064;SDS011;11197;53.110;8.468;2023-09-07T10:12:01;9.45;;;5.70;;
22064;SDS011;11197;53.110;8.468;2023-09-07T10:14:41;7.47;;;5.35;;
22064;SDS011;11197;53.110;8.468;2023-09-07T10:17:07;8.50;;;5.43;;
22064;SDS011;11197;53.110;8.468;2023-09-07T10:19:35;7.55;;;5.57;;
22064;SDS011;11197;53.110;8.468;2023-09-07T10:22:03;7.80;;;5.18;;
22064;SDS011;11197;53.110;8.468;2023-09-07T10:24:32;8.48;;;5.38;;
22064;SDS011;11197;53.110;8.468;2023-09-07T10:27:04;9.60;;;5.55;;
22064;SDS011;11197;53.110;8.468;2023-09-07T10:29:44;7.03;;;5.60;;
22064;SDS011;11197;53.110;8.468;2023-09-07T10:32:10;7.10;;;5.50;;
22064;SDS011;11197;53.110;8.468;2023-09-07T10:34:39;9.02;;;5.32;;
22064;SDS011;11197;53.110;8.468;2023-09-07T10:37:09;6.53;;;5.07;;
22064;SDS011;11197;53.110;8.468;2023-09-07T10:39:42;8.73;;;5.20;;
22064;SDS011;11197;53.110;8.468;2023-09-07T10:42:22;7.38;;;5.55;;
22064;SDS011;11197;53.110;8.468;2023-09-07T10:44:49;6.83;;;5.70;;
22064;SDS011;11197;53.110;8.468;2023-09-07T10:47:14;11.70;;;5.30;;
22064;SDS011;11197;53.110;8.468;2023-09-07T10:49:40;9.23;;;5.20;;
22064;SDS011;11197;53.110;8.468;2023-09-07T10:52:06;5.68;;;5.00;;
22064;SDS011;11197;53.110;8.468;2023-09-07T10:54:32;7.68;;;4.85;;
22064;SDS011;11197;53.110;8.468;2023-09-07T10:56:57;7.25;;;4.97;;
22064;SDS011;11197;53.110;8.468;2023-09-07T10:59:33;6.60;;;4.80;;
22064;SDS011;11197;53.110;8.468;2023-09-07T11:02:05;8.50;;;4.65;;
22064;SDS011;11197;53.110;8.468;2023-09-07T11:04:31;7.68;;;4.70;;
22064;SDS011;11197;53.110;8.468;2023-09-07T11:06:57;9.02;;;5.18;;
22064;SDS011;11197;53.110;8.468;2023-09-07T11:09:23;6.80;;;4.70;;
22064;SDS011;11197;53.110;8.468;2023-09-07T11:11:48;11.00;;;4.90;;
22064;SDS011;11197;53.110;8.468;2023-09-07T11:14:14;7.30;;;4.55;;
22064;SDS011;11197;53.110;8.468;2023-09-07T11:16:40;8.05;;;4.57;;
22064;SDS011;11197;53.110;8.468;2023-09-07T11:19:06;7.28;;;4.70;;
22064;SDS011;11197;53.110;8.468;2023-09-07T11:21:34;5.30;;;4.30;;
22064;SDS011;11197;53.110;8.468;2023-09-07T11:24:01;9.95;;;4.88;;
22064;SDS011;11197;53.110;8.468;2023-09-07T11:26:39;5.35;;;4.38;;
22064;SDS011;11197;53.110;8.468;2023-09-07T11:29:08;6.68;;;4.60;;
22064;SDS011;11197;53.110;8.468;2023-09-07T11:31:34;7.75;;;4.43;;
22064;SDS011;11197;53.110;8.468;2023-09-07T11:34:00;9.10;;;4.22;;
22064;SDS011;11197;53.110;8.468;2023-09-07T11:36:25;8.32;;;4.40;;
22064;SDS011;11197;53.110;8.468;2023-09-07T11:38:51;7.82;;;4.68;;
22064;SDS011;11197;53.110;8.468;2023-09-07T11:41:16;5.88;;;4.20;;
22064;SDS011;11197;53.110;8.468;2023-09-07T11:43:42;8.88;;;4.50;;
22064;SDS011;11197;53.110;8.468;2023-09-07T11:46:10;9.55;;;4.32;;
22064;SDS011;11197;53.110;8.468;2023-09-07T11:48:35;6.15;;;4.20;;
22064;SDS011;11197;53.110;8.468;2023-09-07T11:51:01;7.40;;;4.00;;
22064;SDS011;11197;53.110;8.468;2023-09-07T11:53:27;5.43;;;4.10;;
22064;SDS011;11197;53.110;8.468;2023-09-07T11:55:53;6.75;;;4.20;;
22064;SDS011;11197;53.110;8.468;2023-09-07T11:58:19;5.30;;;3.95;;
22064;SDS011;11197;53.110;8.468;2023-09-07T12:00:44;7.85;;;4.00;;
22064;SDS011;11197;53.110;8.468;2023-09-07T12:03:10;5.32;;;3.92;;
22064;SDS011;11197;53.110;8.468;2023-09-07T12:05:35;5.70;;;3.65;;
22064;SDS011;11197;53.110;8.468;2023-09-07T12:08:02;8.07;;;3.88;;
22064;SDS011;11197;53.110;8.468;2023-09-07T12:10:29;7.78;;;4.07;;
22064;SDS011;11197;53.110;8.468;2023-09-07T12:12:54;6.68;;;3.55;;
22064;SDS011;11197;53.110;8.468;2023-09-07T12:15:20;6.47;;;4.20;;
22064;SDS011;11197;53.110;8.468;2023-09-07T12:17:46;8.63;;;3.85;;
22064;SDS011;11197;53.110;8.468;2023-09-07T12:20:12;6.25;;;3.65;;
22064;SDS011;11197;53.110;8.468;2023-09-07T12:22:39;7.60;;;3.40;;
22064;SDS011;11197;53.110;8.468;2023-09-07T12:25:06;11.48;;;3.92;;
22064;SDS011;11197;53.110;8.468;2023-09-07T12:27:35;6.05;;;3.60;;
22064;SDS011;11197;53.110;8.468;2023-09-07T12:30:01;4.80;;;3.42;;
22064;SDS011;11197;53.110;8.468;2023-09-07T12:32:27;6.72;;;3.58;;
22064;SDS011;11197;53.110;8.468;2023-09-07T12:34:53;5.60;;;3.42;;
22064;SDS011;11197;53.110;8.468;2023-09-07T12:37:19;3.88;;;3.08;;
22064;SDS011;11197;53.110;8.468;2023-09-07T12:39:48;5.25;;;3.10;;
22064;SDS011;11197;53.110;8.468;2023-09-07T12:42:15;6.15;;;3.30;;
22064;SDS011;11197;53.110;8.468;2023-09-07T12:44:41;7.80;;;3.22;;
22064;SDS011;11197;53.110;8.468;2023-09-07T12:47:06;5.45;;;3.38;;
22064;SDS011;11197;53.110;8.468;2023-09-07T12:49:32;9.50;;;3.40;;
22064;SDS011;11197;53.110;8.468;2023-09-07T12:51:58;5.05;;;3.08;;
22064;SDS011;11197;53.110;8.468;2023-09-07T12:54:25;4.82;;;3.30;;
22064;SDS011;11197;53.110;8.468;2023-09-07T12:56:51;6.20;;;3.42;;
22064;SDS011;11197;53.110;8.468;2023-09-07T12:59:17;6.45;;;3.50;;
22064;SDS011;11197;53.110;8.468;2023-09-07T13:01:43;4.72;;;3.50;;
22064;SDS011;11197;53.110;8.468;2023-09-07T13:04:09;5.88;;;3.15;;
22064;SDS011;11197;53.110;8.468;2023-09-07T13:06:36;8.18;;;3.53;;
22064;SDS011;11197;53.110;8.468;2023-09-07T13:09:02;7.57;;;3.10;;
22064;SDS011;11197;53.110;8.468;2023-09-07T13:11:29;4.88;;;3.15;;
22064;SDS011;11197;53.110;8.468;2023-09-07T13:13:55;6.15;;;3.00;;
22064;SDS011;11197;53.110;8.468;2023-09-07T13:16:21;5.85;;;3.33;;
22064;SDS011;11197;53.110;8.468;2023-09-07T13:18:47;8.90;;;3.15;;
22064;SDS011;11197;53.110;8.468;2023-09-07T13:21:13;4.38;;;3.10;;
22064;SDS011;11197;53.110;8.468;2023-09-07T13:23:38;6.55;;;3.10;;
22064;SDS011;11197;53.110;8.468;2023-09-07T13:26:06;4.13;;;3.20;;
22064;SDS011;11197;53.110;8.468;2023-09-07T13:28:32;5.30;;;3.22;;
22064;SDS011;11197;53.110;8.468;2023-09-07T13:30:57;4.70;;;3.30;;
22064;SDS011;11197;53.110;8.468;2023-09-07T13:33:23;5.32;;;3.38;;
22064;SDS011;11197;53.110;8.468;2023-09-07T13:35:50;3.70;;;3.00;;
22064;SDS011;11197;53.110;8.468;2023-09-07T13:38:16;6.00;;;3.10;;
22064;SDS011;11197;53.110;8.468;2023-09-07T13:40:41;6.88;;;3.25;;
22064;SDS011;11197;53.110;8.468;2023-09-07T13:43:08;7.32;;;3.58;;
22064;SDS011;11197;53.110;8.468;2023-09-07T13:45:34;6.57;;;3.60;;
22064;SDS011;11197;53.110;8.468;2023-09-07T13:48:00;8.25;;;3.70;;
22064;SDS011;11197;53.110;8.468;2023-09-07T13:50:27;5.90;;;3.50;;
22064;SDS011;11197;53.110;8.468;2023-09-07T13:52:54;5.78;;;3.40;;
22064;SDS011;11197;53.110;8.468;2023-09-07T13:55:21;7.50;;;3.45;;
22064;SDS011;11197;53.110;8.468;2023-09-07T13:57:47;5.68;;;3.10;;
22064;SDS011;11197;53.110;8.468;2023-09-07T14:00:13;4.35;;;3.03;;
22064;SDS011;11197;53.110;8.468;2023-09-07T14:02:39;8.43;;;3.47;;
22064;SDS011;11197;53.110;8.468;2023-09-07T14:05:05;5.40;;;2.90;;
22064;SDS011;11197;53.110;8.468;2023-09-07T14:07:31;6.95;;;3.10;;
22064;SDS011;11197;53.110;8.468;2023-09-07T14:09:56;6.45;;;2.92;;
22064;SDS011;11197;53.110;8.468;2023-09-07T14:12:22;5.72;;;2.97;;
22064;SDS011;11197;53.110;8.468;2023-09-07T14:14:49;5.32;;;2.92;;
22064;SDS011;11197;53.110;8.468;2023-09-07T14:17:15;6.35;;;3.30;;
22064;SDS011;11197;53.110;8.468;2023-09-07T14:19:41;5.90;;;3.10;;
22064;SDS011;11197;53.110;8.468;2023-09-07T14:22:06;3.85;;;3.00;;
22064;SDS011;11197;53.110;8.468;2023-09-07T14:24:32;4.50;;;2.97;;
22064;SDS011;11197;53.110;8.468;2023-09-07T14:26:58;5.40;;;3.20;;
22064;SDS011;11197;53.110;8.468;2023-09-07T14:29:24;5.60;;;3.03;;
22064;SDS011;11197;53.110;8.468;2023-09-07T14:31:55;5.93;;;3.35;;
22064;SDS011;11197;53.110;8.468;2023-09-07T14:34:30;5.75;;;3.40;;
22064;SDS011;11197;53.110;8.468;2023-09-07T14:37:00;6.57;;;2.80;;
22064;SDS011;11197;53.110;8.468;2023-09-07T14:39:27;6.97;;;3.00;;
22064;SDS011;11197;53.110;8.468;2023-09-07T14:41:52;7.18;;;3.40;;